Hauptseite
METAR-TAF:

METAR-TAF

Flughäfen :

Kangiqsualujjuaq, Québec, Kanada

Breite: 58-43N, Länge: 065-59W, Höhe: 60 m

Beobachtung

Neuester Wetterbericht von vor 5 Stunden und 15 Minuten, um 21:00 UTC
Wind 10 kt aus Nord/Nordwest
Temperatur -2°C
Luftfeuchtigkeit 86%
Luftdruck 1007 hPa
Sichtweite: 24.1 km
Leicht bewölkt in der Höhe von 1400 ft
Aufgelockert bewölkt in der Höhe von 2200 ft
Durchbrochene Bewölkung in der Höhe von 2900 ft
Durchbrochene Bewölkung in der Höhe von 22000 ft

METAR: CYLU 252100Z 33010KT 15SM FEW014 SCT022 BKN029 BKN220 M02/M04 A2974 RMK SC2SC2SC1CS1 LAST STFD OBS/NEXT 261200UTC SLP079

Zeit: 22:15 (02:15 UTC)


TAF: fehlend

Wetterbeobachtungen und Prognosen von mehr als 4000 Flughäfen (METAR und TAF Bericht).

Die verfügbaren Stationen werden durch gelbe und rote Markierungen auf der Karte dargestellt.

Führen Sie die Maus auf sie, um den Namen der Station zu sehen.

Darauf klicken, um die Beobachtung von Wetterbeobachtungen und Prognosen zu sehen.

Um die Karte zu ändern : klicken Sie auf den grünen Tasten mit einem schwarzen Kreuz Zum Vergrößern, auf den grünen Button mit einem Gedankenstrich zu verkleinern, oder auf die grünen Pfeile für benachbarte Karten.


METAR-TAF: